Vb Bretagne — FMHX — position and weather

sailwx.info

Track history (hours):
 
Tides and Currents Weather Stations Pressure Air Temp Water Temp Dewpoint Dewpoint Depression Visibility Wind Speed Wind Dir Waves Ship Positions

Vb Bretagne

Last reported at 2014-Jul-27 16:26 UTC. Time now 2014-Jul-28 22:33 UTC.
Position N 47°16' W 002°12'.

Length 32 m; draft 4.1 m.

Type: Tug. MMSI: 228234700.

Date/timePositionNaut miles runAvg speedWind from/ knotsBaromVisibWave heightAir tempDewpointWater temp
2014-Jul-27 16:26N 47°16' W 002°12'  
2014-Jul-25 05:33N 47°18' W 002°09'0 0.0
2014-Jul-25 04:34N 47°18' W 002°09'0 0.0
2014-Jul-25 03:29N 47°18' W 002°09'0 0.0
2014-Jul-25 02:33N 47°18' W 002°09'0 0.0
2014-Jul-25 01:32N 47°18' W 002°09'0 0.0
2014-Jul-25 00:32N 47°18' W 002°09'0 0.0
2014-Jul-24 23:30N 47°18' W 002°09'0 0.0
2014-Jul-24 22:33N 47°18' W 002°09'0 0.0
2014-Jul-24 20:23N 47°18' W 002°09'0 0.0
2014-Jul-24 19:33N 47°18' W 002°09'3 0.2
2014-Jul-24 06:09N 47°16' W 002°12'0 0.0
2014-Jul-24 04:29N 47°16' W 002°12'4 3.9
2014-Jul-24 03:34N 47°18' W 002°08'0 0.1
2014-Jul-24 02:33N 47°18' W 002°08'  
2014-Jul-18 08:33N 47°18' W 002°06'5 0.3
2014-Jul-17 17:24N 47°16' W 002°12'  
Track history (hours):
 
Tides and Currents Weather Stations Pressure Air Temp Water Temp Dewpoint Dewpoint Depression Visibility Wind Speed Wind Dir Waves Ship Positions

Vb Bretagne

Last reported at 2014-Jul-27 16:26 UTC. Time now 2014-Jul-28 22:33 UTC.
Position N 47°16' W 002°12'.

Length 32 m; draft 4.1 m.

Type: Tug. MMSI: 228234700.

Date/timePositionNaut miles runAvg speedWind from/ knotsBaromVisibWave heightAir tempDewpointWater temp
2014-Jul-27 16:26N 47°16' W 002°12'  
2014-Jul-25 05:33N 47°18' W 002°09'0 0.0
2014-Jul-25 04:34N 47°18' W 002°09'0 0.0
2014-Jul-25 03:29N 47°18' W 002°09'0 0.0
2014-Jul-25 02:33N 47°18' W 002°09'0 0.0
2014-Jul-25 01:32N 47°18' W 002°09'0 0.0
2014-Jul-25 00:32N 47°18' W 002°09'0 0.0
2014-Jul-24 23:30N 47°18' W 002°09'0 0.0
2014-Jul-24 22:33N 47°18' W 002°09'0 0.0
2014-Jul-24 20:23N 47°18' W 002°09'0 0.0
2014-Jul-24 19:33N 47°18' W 002°09'3 0.2
2014-Jul-24 06:09N 47°16' W 002°12'0 0.0
2014-Jul-24 04:29N 47°16' W 002°12'4 3.9
2014-Jul-24 03:34N 47°18' W 002°08'0 0.1
2014-Jul-24 02:33N 47°18' W 002°08'  
2014-Jul-18 08:33N 47°18' W 002°06'5 0.3
2014-Jul-17 17:24N 47°16' W 002°12'  

Dump ship's entire track history